sensor_id;sensor_type;location;lat;lon;timestamp;P1;durP1;ratioP1;P2;durP2;ratioP2
1591;SDS011;789;51.612;7.510;2023-09-12T00:00:23;3.10;;;2.80;;
1591;SDS011;789;51.612;7.510;2023-09-12T00:02:50;3.10;;;2.73;;
1591;SDS011;789;51.612;7.510;2023-09-12T00:05:19;3.33;;;3.00;;
1591;SDS011;789;51.612;7.510;2023-09-12T00:07:45;3.43;;;3.13;;
1591;SDS011;789;51.612;7.510;2023-09-12T00:10:12;3.67;;;3.10;;
1591;SDS011;789;51.612;7.510;2023-09-12T00:12:39;3.73;;;3.23;;
1591;SDS011;789;51.612;7.510;2023-09-12T00:15:06;4.73;;;3.83;;
1591;SDS011;789;51.612;7.510;2023-09-12T00:17:34;4.70;;;4.20;;
1591;SDS011;789;51.612;7.510;2023-09-12T00:20:00;4.10;;;3.70;;
1591;SDS011;789;51.612;7.510;2023-09-12T00:22:29;3.93;;;3.50;;
1591;SDS011;789;51.612;7.510;2023-09-12T00:24:56;4.23;;;3.80;;
1591;SDS011;789;51.612;7.510;2023-09-12T00:27:22;5.27;;;4.27;;
1591;SDS011;789;51.612;7.510;2023-09-12T00:29:49;4.47;;;4.07;;
1591;SDS011;789;51.612;7.510;2023-09-12T00:32:16;4.70;;;4.10;;
1591;SDS011;789;51.612;7.510;2023-09-12T00:34:43;4.97;;;4.57;;
1591;SDS011;789;51.612;7.510;2023-09-12T00:37:09;4.97;;;4.47;;
1591;SDS011;789;51.612;7.510;2023-09-12T00:39:38;6.30;;;4.50;;
1591;SDS011;789;51.612;7.510;2023-09-12T00:42:05;4.93;;;4.53;;
1591;SDS011;789;51.612;7.510;2023-09-12T00:44:32;5.10;;;4.60;;
1591;SDS011;789;51.612;7.510;2023-09-12T00:46:59;5.67;;;5.17;;
1591;SDS011;789;51.612;7.510;2023-09-12T00:49:27;6.10;;;4.77;;
1591;SDS011;789;51.612;7.510;2023-09-12T00:51:55;5.23;;;4.20;;
1591;SDS011;789;51.612;7.510;2023-09-12T00:54:23;5.67;;;5.20;;
1591;SDS011;789;51.612;7.510;2023-09-12T00:56:52;5.40;;;4.90;;
1591;SDS011;789;51.612;7.510;2023-09-12T00:59:19;5.57;;;5.07;;
1591;SDS011;789;51.612;7.510;2023-09-12T01:01:47;6.40;;;5.80;;
1591;SDS011;789;51.612;7.510;2023-09-12T01:04:14;6.13;;;5.50;;
1591;SDS011;789;51.612;7.510;2023-09-12T01:06:41;6.00;;;5.50;;
1591;SDS011;789;51.612;7.510;2023-09-12T01:09:10;6.93;;;6.23;;
1591;SDS011;789;51.612;7.510;2023-09-12T01:11:38;7.23;;;6.53;;
1591;SDS011;789;51.612;7.510;2023-09-12T01:14:07;7.57;;;6.87;;
1591;SDS011;789;51.612;7.510;2023-09-12T01:16:34;8.03;;;7.07;;
1591;SDS011;789;51.612;7.510;2023-09-12T01:19:00;7.97;;;7.17;;
1591;SDS011;789;51.612;7.510;2023-09-12T01:21:36;9.37;;;8.47;;
1591;SDS011;789;51.612;7.510;2023-09-12T01:24:22;12.90;;;9.80;;
1591;SDS011;789;51.612;7.510;2023-09-12T01:27:17;12.50;;;11.30;;
1591;SDS011;789;51.612;7.510;2023-09-12T01:29:48;14.37;;;11.60;;
1591;SDS011;789;51.612;7.510;2023-09-12T01:32:19;10.47;;;9.57;;
1591;SDS011;789;51.612;7.510;2023-09-12T01:34:46;10.87;;;9.70;;
1591;SDS011;789;51.612;7.510;2023-09-12T01:37:13;11.47;;;9.30;;
1591;SDS011;789;51.612;7.510;2023-09-12T01:39:40;14.20;;;10.43;;
1591;SDS011;789;51.612;7.510;2023-09-12T01:42:08;13.00;;;11.77;;
1591;SDS011;789;51.612;7.510;2023-09-12T01:44:41;18.47;;;11.53;;
1591;SDS011;789;51.612;7.510;2023-09-12T01:47:10;15.10;;;13.63;;
1591;SDS011;789;51.612;7.510;2023-09-12T01:49:39;17.10;;;15.30;;
1591;SDS011;789;51.612;7.510;2023-09-12T01:52:08;19.80;;;16.10;;
1591;SDS011;789;51.612;7.510;2023-09-12T01:54:36;17.97;;;14.73;;
1591;SDS011;789;51.612;7.510;2023-09-12T01:57:04;15.60;;;13.87;;
1591;SDS011;789;51.612;7.510;2023-09-12T01:59:31;15.07;;;13.37;;
1591;SDS011;789;51.612;7.510;2023-09-12T02:02:00;16.33;;;14.20;;
1591;SDS011;789;51.612;7.510;2023-09-12T02:04:27;15.20;;;13.73;;
1591;SDS011;789;51.612;7.510;2023-09-12T02:06:54;15.90;;;12.77;;
1591;SDS011;789;51.612;7.510;2023-09-12T02:09:20;14.77;;;13.27;;
1591;SDS011;789;51.612;7.510;2023-09-12T02:11:48;15.40;;;13.73;;
1591;SDS011;789;51.612;7.510;2023-09-12T02:14:17;17.50;;;15.13;;
1591;SDS011;789;51.612;7.510;2023-09-12T02:16:44;16.63;;;15.03;;
1591;SDS011;789;51.612;7.510;2023-09-12T02:19:12;17.60;;;15.80;;
1591;SDS011;789;51.612;7.510;2023-09-12T02:21:39;15.80;;;14.00;;
1591;SDS011;789;51.612;7.510;2023-09-12T02:24:07;15.40;;;13.90;;
1591;SDS011;789;51.612;7.510;2023-09-12T02:26:34;16.17;;;14.67;;
1591;SDS011;789;51.612;7.510;2023-09-12T02:29:01;16.70;;;15.00;;
1591;SDS011;789;51.612;7.510;2023-09-12T02:31:29;18.40;;;16.63;;
1591;SDS011;789;51.612;7.510;2023-09-12T02:33:55;17.80;;;16.10;;
1591;SDS011;789;51.612;7.510;2023-09-12T02:36:25;18.43;;;16.40;;
1591;SDS011;789;51.612;7.510;2023-09-12T02:38:52;20.07;;;18.07;;
1591;SDS011;789;51.612;7.510;2023-09-12T02:41:19;24.33;;;19.27;;
1591;SDS011;789;51.612;7.510;2023-09-12T02:43:46;21.20;;;18.33;;
1591;SDS011;789;51.612;7.510;2023-09-12T02:46:13;22.90;;;20.50;;
1591;SDS011;789;51.612;7.510;2023-09-12T02:48:40;21.70;;;19.40;;
1591;SDS011;789;51.612;7.510;2023-09-12T02:51:06;20.27;;;18.13;;
1591;SDS011;789;51.612;7.510;2023-09-12T02:53:35;21.13;;;19.03;;
1591;SDS011;789;51.612;7.510;2023-09-12T02:56:01;21.60;;;19.30;;
1591;SDS011;789;51.612;7.510;2023-09-12T02:58:28;22.63;;;19.50;;
1591;SDS011;789;51.612;7.510;2023-09-12T03:00:55;22.43;;;20.03;;
1591;SDS011;789;51.612;7.510;2023-09-12T03:03:22;22.10;;;19.80;;
1591;SDS011;789;51.612;7.510;2023-09-12T03:05:56;23.37;;;20.97;;
1591;SDS011;789;51.612;7.510;2023-09-12T03:08:24;24.43;;;22.03;;
1591;SDS011;789;51.612;7.510;2023-09-12T03:10:54;22.40;;;20.20;;
1591;SDS011;789;51.612;7.510;2023-09-12T03:13:22;23.97;;;21.57;;
1591;SDS011;789;51.612;7.510;2023-09-12T03:15:50;22.67;;;19.73;;
1591;SDS011;789;51.612;7.510;2023-09-12T03:18:17;22.30;;;19.90;;
1591;SDS011;789;51.612;7.510;2023-09-12T03:20:44;21.60;;;19.30;;
1591;SDS011;789;51.612;7.510;2023-09-12T03:23:10;23.30;;;21.00;;
1591;SDS011;789;51.612;7.510;2023-09-12T03:25:37;24.27;;;21.67;;
1591;SDS011;789;51.612;7.510;2023-09-12T03:28:06;23.63;;;20.83;;
1591;SDS011;789;51.612;7.510;2023-09-12T03:30:32;25.23;;;21.07;;
1591;SDS011;789;51.612;7.510;2023-09-12T03:33:00;24.80;;;21.37;;
1591;SDS011;789;51.612;7.510;2023-09-12T03:35:27;21.87;;;19.70;;
1591;SDS011;789;51.612;7.510;2023-09-12T03:37:55;23.40;;;21.07;;
1591;SDS011;789;51.612;7.510;2023-09-12T03:40:21;22.00;;;19.90;;
1591;SDS011;789;51.612;7.510;2023-09-12T03:42:48;28.13;;;21.07;;
1591;SDS011;789;51.612;7.510;2023-09-12T03:45:16;25.43;;;21.73;;
1591;SDS011;789;51.612;7.510;2023-09-12T03:47:43;23.40;;;21.00;;
1591;SDS011;789;51.612;7.510;2023-09-12T03:50:11;29.03;;;22.73;;
1591;SDS011;789;51.612;7.510;2023-09-12T03:52:38;29.37;;;22.47;;
1591;SDS011;789;51.612;7.510;2023-09-12T03:55:05;25.90;;;21.60;;
1591;SDS011;789;51.612;7.510;2023-09-12T03:57:33;26.27;;;21.60;;
1591;SDS011;789;51.612;7.510;2023-09-12T04:00:00;26.03;;;22.17;;
1591;SDS011;789;51.612;7.510;2023-09-12T04:02:30;26.17;;;21.77;;
1591;SDS011;789;51.612;7.510;2023-09-12T04:04:57;30.30;;;23.90;;
1591;SDS011;789;51.612;7.510;2023-09-12T04:07:24;26.83;;;23.93;;
1591;SDS011;789;51.612;7.510;2023-09-12T04:09:51;26.80;;;23.90;;
1591;SDS011;789;51.612;7.510;2023-09-12T04:12:18;26.10;;;23.30;;
1591;SDS011;789;51.612;7.510;2023-09-12T04:14:44;29.77;;;25.77;;
1591;SDS011;789;51.612;7.510;2023-09-12T04:17:11;31.80;;;25.57;;
1591;SDS011;789;51.612;7.510;2023-09-12T04:19:39;29.73;;;25.80;;
1591;SDS011;789;51.612;7.510;2023-09-12T04:22:06;31.77;;;26.47;;
1591;SDS011;789;51.612;7.510;2023-09-12T04:24:33;30.77;;;25.27;;
1591;SDS011;789;51.612;7.510;2023-09-12T04:27:00;30.40;;;25.83;;
1591;SDS011;789;51.612;7.510;2023-09-12T04:29:26;30.97;;;25.90;;
1591;SDS011;789;51.612;7.510;2023-09-12T04:31:53;31.33;;;25.37;;
1591;SDS011;789;51.612;7.510;2023-09-12T04:34:24;28.63;;;25.60;;
1591;SDS011;789;51.612;7.510;2023-09-12T04:36:53;29.07;;;24.57;;
1591;SDS011;789;51.612;7.510;2023-09-12T04:39:20;28.47;;;25.47;;
1591;SDS011;789;51.612;7.510;2023-09-12T04:41:46;33.03;;;27.80;;
1591;SDS011;789;51.612;7.510;2023-09-12T04:44:13;30.57;;;27.10;;
1591;SDS011;789;51.612;7.510;2023-09-12T04:46:40;33.23;;;27.53;;
1591;SDS011;789;51.612;7.510;2023-09-12T04:49:07;30.20;;;26.50;;
1591;SDS011;789;51.612;7.510;2023-09-12T04:51:34;30.27;;;26.97;;
1591;SDS011;789;51.612;7.510;2023-09-12T04:54:02;29.83;;;26.63;;
1591;SDS011;789;51.612;7.510;2023-09-12T04:56:29;31.33;;;27.93;;
1591;SDS011;789;51.612;7.510;2023-09-12T04:58:56;31.13;;;27.53;;
1591;SDS011;789;51.612;7.510;2023-09-12T05:01:22;31.93;;;27.20;;
1591;SDS011;789;51.612;7.510;2023-09-12T05:03:50;28.93;;;25.80;;
1591;SDS011;789;51.612;7.510;2023-09-12T05:06:17;31.33;;;26.83;;
1591;SDS011;789;51.612;7.510;2023-09-12T05:08:44;31.63;;;27.40;;
1591;SDS011;789;51.612;7.510;2023-09-12T05:11:13;28.53;;;25.63;;
1591;SDS011;789;51.612;7.510;2023-09-12T05:13:40;30.07;;;26.97;;
1591;SDS011;789;51.612;7.510;2023-09-12T05:16:07;30.60;;;27.30;;
1591;SDS011;789;51.612;7.510;2023-09-12T05:18:33;31.50;;;28.40;;
1591;SDS011;789;51.612;7.510;2023-09-12T05:21:00;30.53;;;27.30;;
1591;SDS011;789;51.612;7.510;2023-09-12T05:23:27;29.77;;;26.63;;
1591;SDS011;789;51.612;7.510;2023-09-12T05:25:54;31.00;;;26.07;;
1591;SDS011;789;51.612;7.510;2023-09-12T05:28:23;30.60;;;26.30;;
1591;SDS011;789;51.612;7.510;2023-09-12T05:30:50;27.97;;;25.23;;
1591;SDS011;789;51.612;7.510;2023-09-12T05:33:16;27.30;;;23.40;;
1591;SDS011;789;51.612;7.510;2023-09-12T05:35:44;28.67;;;25.73;;
1591;SDS011;789;51.612;7.510;2023-09-12T05:38:11;26.70;;;23.73;;
1591;SDS011;789;51.612;7.510;2023-09-12T05:40:37;28.87;;;25.63;;
1591;SDS011;789;51.612;7.510;2023-09-12T05:43:04;29.10;;;24.70;;
1591;SDS011;789;51.612;7.510;2023-09-12T05:45:32;30.33;;;24.93;;
1591;SDS011;789;51.612;7.510;2023-09-12T05:47:59;28.93;;;24.40;;
1591;SDS011;789;51.612;7.510;2023-09-12T05:50:26;28.40;;;24.80;;
1591;SDS011;789;51.612;7.510;2023-09-12T05:52:53;28.03;;;24.80;;
1591;SDS011;789;51.612;7.510;2023-09-12T05:55:20;29.33;;;24.80;;
1591;SDS011;789;51.612;7.510;2023-09-12T05:57:47;27.17;;;24.23;;
1591;SDS011;789;51.612;7.510;2023-09-12T06:00:17;27.57;;;23.83;;
1591;SDS011;789;51.612;7.510;2023-09-12T06:02:45;30.80;;;23.90;;
1591;SDS011;789;51.612;7.510;2023-09-12T06:05:12;28.63;;;24.60;;
1591;SDS011;789;51.612;7.510;2023-09-12T06:07:39;29.20;;;26.17;;
1591;SDS011;789;51.612;7.510;2023-09-12T06:10:07;30.07;;;25.90;;
1591;SDS011;789;51.612;7.510;2023-09-12T06:12:34;27.60;;;24.60;;
1591;SDS011;789;51.612;7.510;2023-09-12T06:15:02;30.70;;;26.00;;
1591;SDS011;789;51.612;7.510;2023-09-12T06:17:29;28.50;;;25.43;;
1591;SDS011;789;51.612;7.510;2023-09-12T06:19:57;35.80;;;28.00;;
1591;SDS011;789;51.612;7.510;2023-09-12T06:22:24;30.27;;;26.30;;
1591;SDS011;789;51.612;7.510;2023-09-12T06:24:51;32.80;;;26.30;;
1591;SDS011;789;51.612;7.510;2023-09-12T06:27:18;36.23;;;26.67;;
1591;SDS011;789;51.612;7.510;2023-09-12T06:29:45;32.60;;;25.73;;
1591;SDS011;789;51.612;7.510;2023-09-12T06:32:15;29.50;;;26.43;;
1591;SDS011;789;51.612;7.510;2023-09-12T06:34:43;33.37;;;27.80;;
1591;SDS011;789;51.612;7.510;2023-09-12T06:37:12;30.80;;;27.30;;
1591;SDS011;789;51.612;7.510;2023-09-12T06:39:39;32.03;;;28.57;;
1591;SDS011;789;51.612;7.510;2023-09-12T06:42:07;40.97;;;32.03;;
1591;SDS011;789;51.612;7.510;2023-09-12T06:44:34;34.60;;;30.50;;
1591;SDS011;789;51.612;7.510;2023-09-12T06:47:03;31.57;;;27.77;;
1591;SDS011;789;51.612;7.510;2023-09-12T06:49:30;33.73;;;28.13;;
1591;SDS011;789;51.612;7.510;2023-09-12T06:51:58;35.10;;;30.37;;
1591;SDS011;789;51.612;7.510;2023-09-12T06:54:26;34.57;;;30.77;;
1591;SDS011;789;51.612;7.510;2023-09-12T06:56:53;34.67;;;30.90;;
1591;SDS011;789;51.612;7.510;2023-09-12T06:59:19;36.53;;;32.57;;
1591;SDS011;789;51.612;7.510;2023-09-12T07:01:47;34.70;;;31.10;;
1591;SDS011;789;51.612;7.510;2023-09-12T07:04:14;35.70;;;31.80;;
1591;SDS011;789;51.612;7.510;2023-09-12T07:06:41;35.60;;;31.50;;
1591;SDS011;789;51.612;7.510;2023-09-12T07:09:10;39.40;;;32.90;;
1591;SDS011;789;51.612;7.510;2023-09-12T07:11:41;38.27;;;33.30;;
1591;SDS011;789;51.612;7.510;2023-09-12T07:14:08;35.57;;;31.70;;
1591;SDS011;789;51.612;7.510;2023-09-12T07:16:35;35.83;;;31.33;;
1591;SDS011;789;51.612;7.510;2023-09-12T07:19:01;34.07;;;30.33;;
1591;SDS011;789;51.612;7.510;2023-09-12T07:21:28;38.40;;;31.60;;
1591;SDS011;789;51.612;7.510;2023-09-12T07:23:55;36.30;;;32.57;;
1591;SDS011;789;51.612;7.510;2023-09-12T07:26:22;35.70;;;32.03;;
1591;SDS011;789;51.612;7.510;2023-09-12T07:28:50;34.37;;;30.87;;
1591;SDS011;789;51.612;7.510;2023-09-12T07:31:19;35.37;;;31.87;;
1591;SDS011;789;51.612;7.510;2023-09-12T07:33:46;37.77;;;33.73;;
1591;SDS011;789;51.612;7.510;2023-09-12T07:36:12;37.60;;;33.50;;
1591;SDS011;789;51.612;7.510;2023-09-12T07:38:39;42.27;;;35.10;;
1591;SDS011;789;51.612;7.510;2023-09-12T07:41:07;38.77;;;34.73;;
1591;SDS011;789;51.612;7.510;2023-09-12T07:43:34;36.17;;;32.27;;
1591;SDS011;789;51.612;7.510;2023-09-12T07:46:02;34.70;;;31.20;;
1591;SDS011;789;51.612;7.510;2023-09-12T07:48:29;35.73;;;32.00;;
1591;SDS011;789;51.612;7.510;2023-09-12T07:50:56;34.97;;;31.27;;
1591;SDS011;789;51.612;7.510;2023-09-12T07:53:25;35.50;;;31.97;;
1591;SDS011;789;51.612;7.510;2023-09-12T07:55:51;34.80;;;31.47;;
1591;SDS011;789;51.612;7.510;2023-09-12T07:58:19;35.70;;;32.20;;
1591;SDS011;789;51.612;7.510;2023-09-12T08:00:46;36.57;;;32.97;;
1591;SDS011;789;51.612;7.510;2023-09-12T08:03:15;35.30;;;31.80;;
1591;SDS011;789;51.612;7.510;2023-09-12T08:05:42;38.60;;;34.40;;
1591;SDS011;789;51.612;7.510;2023-09-12T08:08:09;42.07;;;37.70;;
1591;SDS011;789;51.612;7.510;2023-09-12T08:10:36;41.93;;;37.17;;
1591;SDS011;789;51.612;7.510;2023-09-12T08:13:03;41.70;;;37.37;;
1591;SDS011;789;51.612;7.510;2023-09-12T08:15:32;42.77;;;38.17;;
1591;SDS011;789;51.612;7.510;2023-09-12T08:18:02;44.00;;;39.30;;
1591;SDS011;789;51.612;7.510;2023-09-12T08:20:31;43.83;;;39.13;;
1591;SDS011;789;51.612;7.510;2023-09-12T08:22:57;42.17;;;37.57;;
1591;SDS011;789;51.612;7.510;2023-09-12T08:25:24;40.23;;;36.03;;
1591;SDS011;789;51.612;7.510;2023-09-12T08:27:52;38.50;;;34.40;;
1591;SDS011;789;51.612;7.510;2023-09-12T08:30:21;37.00;;;32.80;;
1591;SDS011;789;51.612;7.510;2023-09-12T08:32:50;28.50;;;25.50;;
1591;SDS011;789;51.612;7.510;2023-09-12T08:35:17;28.37;;;25.43;;
1591;SDS011;789;51.612;7.510;2023-09-12T08:37:48;23.23;;;20.73;;
1591;SDS011;789;51.612;7.510;2023-09-12T08:40:14;23.57;;;21.17;;
1591;SDS011;789;51.612;7.510;2023-09-12T08:42:44;21.97;;;19.67;;
1591;SDS011;789;51.612;7.510;2023-09-12T08:45:14;22.07;;;19.77;;
1591;SDS011;789;51.612;7.510;2023-09-12T08:47:53;20.33;;;18.33;;
1591;SDS011;789;51.612;7.510;2023-09-12T08:50:23;20.67;;;18.67;;
1591;SDS011;789;51.612;7.510;2023-09-12T08:52:57;19.90;;;17.90;;
1591;SDS011;789;51.612;7.510;2023-09-12T08:55:24;21.53;;;19.43;;
1591;SDS011;789;51.612;7.510;2023-09-12T08:57:51;22.40;;;20.30;;
1591;SDS011;789;51.612;7.510;2023-09-12T09:00:21;22.53;;;20.33;;
1591;SDS011;789;51.612;7.510;2023-09-12T09:02:52;20.80;;;18.90;;
1591;SDS011;789;51.612;7.510;2023-09-12T09:05:20;20.97;;;18.80;;
1591;SDS011;789;51.612;7.510;2023-09-12T09:07:48;22.20;;;20.03;;
1591;SDS011;789;51.612;7.510;2023-09-12T09:10:22;19.70;;;17.63;;
1591;SDS011;789;51.612;7.510;2023-09-12T09:12:54;21.50;;;19.03;;
1591;SDS011;789;51.612;7.510;2023-09-12T09:15:23;20.33;;;18.20;;
1591;SDS011;789;51.612;7.510;2023-09-12T09:17:51;17.90;;;16.30;;
1591;SDS011;789;51.612;7.510;2023-09-12T09:20:23;17.77;;;16.00;;
1591;SDS011;789;51.612;7.510;2023-09-12T09:22:56;18.77;;;16.97;;
1591;SDS011;789;51.612;7.510;2023-09-12T09:25:39;20.20;;;17.53;;
1591;SDS011;789;51.612;7.510;2023-09-12T09:28:15;19.07;;;17.40;;
1591;SDS011;789;51.612;7.510;2023-09-12T09:30:43;20.30;;;18.43;;
1591;SDS011;789;51.612;7.510;2023-09-12T09:33:11;19.50;;;17.80;;
1591;SDS011;789;51.612;7.510;2023-09-12T09:35:40;16.00;;;14.60;;
1591;SDS011;789;51.612;7.510;2023-09-12T09:38:12;15.83;;;14.33;;
1591;SDS011;789;51.612;7.510;2023-09-12T09:40:45;13.77;;;12.03;;
1591;SDS011;789;51.612;7.510;2023-09-12T09:43:12;10.83;;;9.93;;
1591;SDS011;789;51.612;7.510;2023-09-12T09:45:42;11.40;;;10.40;;
1591;SDS011;789;51.612;7.510;2023-09-12T09:48:10;12.23;;;11.03;;
1591;SDS011;789;51.612;7.510;2023-09-12T09:50:44;9.70;;;8.90;;
1591;SDS011;789;51.612;7.510;2023-09-12T09:53:11;10.80;;;10.00;;
1591;SDS011;789;51.612;7.510;2023-09-12T09:55:38;10.00;;;9.13;;
1591;SDS011;789;51.612;7.510;2023-09-12T09:58:06;8.87;;;8.17;;
1591;SDS011;789;51.612;7.510;2023-09-12T10:00:33;8.83;;;8.13;;
1591;SDS011;789;51.612;7.510;2023-09-12T10:03:03;8.03;;;7.23;;
1591;SDS011;789;51.612;7.510;2023-09-12T10:05:32;8.90;;;8.20;;
1591;SDS011;789;51.612;7.510;2023-09-12T10:08:00;8.47;;;7.77;;
1591;SDS011;789;51.612;7.510;2023-09-12T10:10:36;7.60;;;7.00;;
1591;SDS011;789;51.612;7.510;2023-09-12T10:13:09;9.27;;;8.57;;
1591;SDS011;789;51.612;7.510;2023-09-12T10:15:45;9.13;;;8.47;;
1591;SDS011;789;51.612;7.510;2023-09-12T10:18:18;8.23;;;7.53;;
1591;SDS011;789;51.612;7.510;2023-09-12T10:20:58;9.13;;;8.43;;
1591;SDS011;789;51.612;7.510;2023-09-12T10:23:35;8.50;;;7.80;;
1591;SDS011;789;51.612;7.510;2023-09-12T10:26:13;9.23;;;8.53;;
1591;SDS011;789;51.612;7.510;2023-09-12T10:28:44;8.33;;;7.17;;
1591;SDS011;789;51.612;7.510;2023-09-12T10:31:19;9.47;;;8.77;;
1591;SDS011;789;51.612;7.510;2023-09-12T10:33:48;8.23;;;7.40;;
1591;SDS011;789;51.612;7.510;2023-09-12T10:36:19;7.83;;;7.23;;
1591;SDS011;789;51.612;7.510;2023-09-12T10:38:54;9.30;;;7.60;;
1591;SDS011;789;51.612;7.510;2023-09-12T10:41:27;7.13;;;6.63;;
1591;SDS011;789;51.612;7.510;2023-09-12T10:43:56;7.20;;;6.70;;
1591;SDS011;789;51.612;7.510;2023-09-12T10:46:33;8.10;;;7.47;;
1591;SDS011;789;51.612;7.510;2023-09-12T10:49:02;8.53;;;7.80;;
1591;SDS011;789;51.612;7.510;2023-09-12T10:51:33;9.00;;;8.10;;
1591;SDS011;789;51.612;7.510;2023-09-12T10:54:03;7.43;;;6.83;;
1591;SDS011;789;51.612;7.510;2023-09-12T10:56:30;7.80;;;7.20;;
1591;SDS011;789;51.612;7.510;2023-09-12T10:59:12;8.57;;;7.40;;
1591;SDS011;789;51.612;7.510;2023-09-12T11:01:46;8.20;;;7.50;;
1591;SDS011;789;51.612;7.510;2023-09-12T11:07:32;9.10;;;8.27;;
1591;SDS011;789;51.612;7.510;2023-09-12T11:10:15;6.83;;;6.30;;
1591;SDS011;789;51.612;7.510;2023-09-12T11:12:49;8.20;;;7.60;;
1591;SDS011;789;51.612;7.510;2023-09-12T11:15:34;9.23;;;8.57;;
1591;SDS011;789;51.612;7.510;2023-09-12T11:18:04;8.80;;;8.00;;
1591;SDS011;789;51.612;7.510;2023-09-12T11:20:52;8.80;;;8.10;;
1591;SDS011;789;51.612;7.510;2023-09-12T11:23:25;8.10;;;7.50;;
1591;SDS011;789;51.612;7.510;2023-09-12T11:26:02;8.70;;;8.00;;
1591;SDS011;789;51.612;7.510;2023-09-12T11:28:31;9.83;;;8.83;;
1591;SDS011;789;51.612;7.510;2023-09-12T11:31:03;9.50;;;8.70;;
1591;SDS011;789;51.612;7.510;2023-09-12T11:33:32;7.80;;;7.10;;
1591;SDS011;789;51.612;7.510;2023-09-12T11:36:00;9.63;;;7.87;;
1591;SDS011;789;51.612;7.510;2023-09-12T11:38:30;7.90;;;7.30;;
1591;SDS011;789;51.612;7.510;2023-09-12T11:40:58;8.10;;;7.30;;
1591;SDS011;789;51.612;7.510;2023-09-12T11:43:30;8.30;;;7.70;;
1591;SDS011;789;51.612;7.510;2023-09-12T11:46:06;7.93;;;7.33;;
1591;SDS011;789;51.612;7.510;2023-09-12T11:48:39;7.13;;;6.53;;
1591;SDS011;789;51.612;7.510;2023-09-12T11:51:10;6.87;;;6.37;;
1591;SDS011;789;51.612;7.510;2023-09-12T11:53:47;6.63;;;6.03;;
1591;SDS011;789;51.612;7.510;2023-09-12T11:56:23;5.53;;;5.13;;
1591;SDS011;789;51.612;7.510;2023-09-12T11:58:50;6.27;;;5.87;;
1591;SDS011;789;51.612;7.510;2023-09-12T12:01:22;5.67;;;5.17;;
1591;SDS011;789;51.612;7.510;2023-09-12T12:03:50;5.73;;;5.17;;
1591;SDS011;789;51.612;7.510;2023-09-12T12:06:19;5.70;;;5.00;;
1591;SDS011;789;51.612;7.510;2023-09-12T12:08:46;4.70;;;4.40;;
1591;SDS011;789;51.612;7.510;2023-09-12T12:11:13;5.13;;;4.57;;
1591;SDS011;789;51.612;7.510;2023-09-12T12:13:46;5.37;;;4.97;;
1591;SDS011;789;51.612;7.510;2023-09-12T12:16:15;4.87;;;4.47;;
1591;SDS011;789;51.612;7.510;2023-09-12T12:18:57;4.70;;;4.30;;
1591;SDS011;789;51.612;7.510;2023-09-12T12:21:24;4.63;;;4.33;;
1591;SDS011;789;51.612;7.510;2023-09-12T12:23:59;5.10;;;4.60;;
1591;SDS011;789;51.612;7.510;2023-09-12T12:26:29;5.03;;;4.63;;
1591;SDS011;789;51.612;7.510;2023-09-12T12:28:58;5.47;;;5.07;;
1591;SDS011;789;51.612;7.510;2023-09-12T12:31:25;6.60;;;6.00;;
1591;SDS011;789;51.612;7.510;2023-09-12T12:34:00;5.30;;;4.90;;
1591;SDS011;789;51.612;7.510;2023-09-12T12:36:32;5.07;;;4.67;;
1591;SDS011;789;51.612;7.510;2023-09-12T12:39:10;5.53;;;5.13;;
1591;SDS011;789;51.612;7.510;2023-09-12T12:41:39;6.80;;;4.90;;
1591;SDS011;789;51.612;7.510;2023-09-12T12:44:08;5.67;;;5.27;;
1591;SDS011;789;51.612;7.510;2023-09-12T12:46:47;5.87;;;5.47;;
1591;SDS011;789;51.612;7.510;2023-09-12T12:49:16;6.47;;;5.97;;
1591;SDS011;789;51.612;7.510;2023-09-12T12:51:46;6.47;;;5.87;;
1591;SDS011;789;51.612;7.510;2023-09-12T12:54:13;6.40;;;5.60;;
1591;SDS011;789;51.612;7.510;2023-09-12T12:56:41;5.20;;;4.80;;
1591;SDS011;789;51.612;7.510;2023-09-12T12:59:10;6.37;;;5.87;;
1591;SDS011;789;51.612;7.510;2023-09-12T13:01:39;7.20;;;6.07;;
1591;SDS011;789;51.612;7.510;2023-09-12T13:04:06;5.90;;;5.40;;
1591;SDS011;789;51.612;7.510;2023-09-12T13:06:35;7.37;;;6.77;;
1591;SDS011;789;51.612;7.510;2023-09-12T13:09:03;6.10;;;5.50;;
1591;SDS011;789;51.612;7.510;2023-09-12T13:11:31;6.20;;;5.60;;
1591;SDS011;789;51.612;7.510;2023-09-12T13:14:02;6.93;;;6.33;;
1591;SDS011;789;51.612;7.510;2023-09-12T13:16:34;7.13;;;6.60;;
1591;SDS011;789;51.612;7.510;2023-09-12T13:19:01;5.93;;;5.43;;
1591;SDS011;789;51.612;7.510;2023-09-12T13:21:33;6.63;;;6.03;;
1591;SDS011;789;51.612;7.510;2023-09-12T13:24:03;6.70;;;6.10;;
1591;SDS011;789;51.612;7.510;2023-09-12T13:26:30;5.47;;;4.97;;
1591;SDS011;789;51.612;7.510;2023-09-12T13:28:57;6.67;;;5.87;;
1591;SDS011;789;51.612;7.510;2023-09-12T13:31:23;7.40;;;5.87;;
1591;SDS011;789;51.612;7.510;2023-09-12T13:33:52;6.90;;;6.13;;
1591;SDS011;789;51.612;7.510;2023-09-12T13:36:22;7.20;;;6.60;;
1591;SDS011;789;51.612;7.510;2023-09-12T13:38:52;6.60;;;5.20;;
1591;SDS011;789;51.612;7.510;2023-09-12T13:41:18;6.10;;;5.60;;
1591;SDS011;789;51.612;7.510;2023-09-12T13:43:47;6.30;;;5.80;;
1591;SDS011;789;51.612;7.510;2023-09-12T13:46:20;5.83;;;5.43;;
1591;SDS011;789;51.612;7.510;2023-09-12T13:48:46;6.50;;;6.00;;
1591;SDS011;789;51.612;7.510;2023-09-12T13:51:13;6.93;;;5.33;;
1591;SDS011;789;51.612;7.510;2023-09-12T13:53:40;6.47;;;5.60;;
1591;SDS011;789;51.612;7.510;2023-09-12T13:56:09;6.40;;;5.80;;
1591;SDS011;789;51.612;7.510;2023-09-12T13:58:35;5.87;;;5.30;;
1591;SDS011;789;51.612;7.510;2023-09-12T14:01:02;6.43;;;5.93;;
1591;SDS011;789;51.612;7.510;2023-09-12T14:03:29;6.10;;;5.70;;
1591;SDS011;789;51.612;7.510;2023-09-12T14:05:56;6.10;;;5.60;;
1591;SDS011;789;51.612;7.510;2023-09-12T14:08:23;5.80;;;5.40;;
1591;SDS011;789;51.612;7.510;2023-09-12T14:10:50;6.00;;;5.50;;
1591;SDS011;789;51.612;7.510;2023-09-12T14:13:26;5.90;;;5.40;;
1591;SDS011;789;51.612;7.510;2023-09-12T14:15:56;5.20;;;4.80;;
1591;SDS011;789;51.612;7.510;2023-09-12T14:18:24;5.80;;;5.23;;
1591;SDS011;789;51.612;7.510;2023-09-12T14:20:51;6.40;;;5.77;;
1591;SDS011;789;51.612;7.510;2023-09-12T14:23:17;6.40;;;5.90;;
1591;SDS011;789;51.612;7.510;2023-09-12T14:25:47;5.67;;;5.17;;
1591;SDS011;789;51.612;7.510;2023-09-12T14:28:16;6.30;;;5.80;;
1591;SDS011;789;51.612;7.510;2023-09-12T14:30:47;5.83;;;5.33;;
1591;SDS011;789;51.612;7.510;2023-09-12T14:33:15;5.47;;;4.97;;
1591;SDS011;789;51.612;7.510;2023-09-12T14:35:42;7.60;;;5.60;;
1591;SDS011;789;51.612;7.510;2023-09-12T14:38:11;6.23;;;5.63;;
1591;SDS011;789;51.612;7.510;2023-09-12T14:40:38;6.63;;;5.83;;
1591;SDS011;789;51.612;7.510;2023-09-12T14:43:05;6.07;;;5.57;;
1591;SDS011;789;51.612;7.510;2023-09-12T14:45:33;6.20;;;5.70;;
1591;SDS011;789;51.612;7.510;2023-09-12T14:48:04;6.60;;;6.03;;
1591;SDS011;789;51.612;7.510;2023-09-12T14:50:41;7.07;;;5.87;;
1591;SDS011;789;51.612;7.510;2023-09-12T14:53:16;6.70;;;6.10;;
1591;SDS011;789;51.612;7.510;2023-09-12T14:55:43;6.40;;;5.80;;
1591;SDS011;789;51.612;7.510;2023-09-12T14:58:16;6.93;;;6.13;;
1591;SDS011;789;51.612;7.510;2023-09-12T15:00:43;6.20;;;5.70;;
1591;SDS011;789;51.612;7.510;2023-09-12T15:03:14;5.77;;;5.27;;
1591;SDS011;789;51.612;7.510;2023-09-12T15:05:40;6.47;;;5.83;;
1591;SDS011;789;51.612;7.510;2023-09-12T15:08:08;5.27;;;4.77;;
1591;SDS011;789;51.612;7.510;2023-09-12T15:10:35;6.10;;;5.50;;
1591;SDS011;789;51.612;7.510;2023-09-12T15:13:05;7.20;;;6.50;;
1591;SDS011;789;51.612;7.510;2023-09-12T15:15:34;5.73;;;5.23;;
1591;SDS011;789;51.612;7.510;2023-09-12T15:18:01;11.20;;;8.27;;
1591;SDS011;789;51.612;7.510;2023-09-12T15:20:31;8.40;;;7.00;;
1591;SDS011;789;51.612;7.510;2023-09-12T15:23:00;8.03;;;7.33;;
1591;SDS011;789;51.612;7.510;2023-09-12T15:25:27;8.00;;;6.23;;
1591;SDS011;789;51.612;7.510;2023-09-12T15:27:54;6.43;;;5.83;;